地図

経路データ

SID SEASON NUMBER BASIN SUBBASIN NAME ISO_TIME NATURE LAT LON WMO_WIND WMO_PRES WMO_AGENCY TRACK_TYPE DIST2LAND LANDFALL IFLAG USA_AGENCY USA_ATCF_ID USA_LAT USA_LON USA_RECORD USA_STATUS USA_WIND USA_PRES USA_SSHS USA_R34_NE USA_R34_SE USA_R34_SW USA_R34_NW USA_R50_NE USA_R50_SE USA_R50_SW USA_R50_NW USA_R64_NE USA_R64_SE USA_R64_SW USA_R64_NW USA_POCI USA_ROCI USA_RMW USA_EYE TOKYO_LAT TOKYO_LON TOKYO_GRADE TOKYO_WIND TOKYO_PRES TOKYO_R50_DIR TOKYO_R50_LONG TOKYO_R50_SHORT TOKYO_R30_DIR TOKYO_R30_LONG TOKYO_R30_SHORT TOKYO_LAND CMA_LAT CMA_LON CMA_CAT CMA_WIND CMA_PRES HKO_LAT HKO_LON HKO_CAT HKO_WIND HKO_PRES NEWDELHI_LAT NEWDELHI_LON NEWDELHI_GRADE NEWDELHI_WIND NEWDELHI_PRES NEWDELHI_CI NEWDELHI_DP NEWDELHI_POCI REUNION_LAT REUNION_LON REUNION_TYPE REUNION_WIND REUNION_PRES REUNION_TNUM REUNION_CI REUNION_RMW REUNION_R34_NE REUNION_R34_SE REUNION_R34_SW REUNION_R34_NW REUNION_R50_NE REUNION_R50_SE REUNION_R50_SW REUNION_R50_NW REUNION_R64_NE REUNION_R64_SE REUNION_R64_SW REUNION_R64_NW BOM_LAT BOM_LON BOM_TYPE BOM_WIND BOM_PRES BOM_TNUM BOM_CI BOM_RMW BOM_R34_NE BOM_R34_SE BOM_R34_SW BOM_R34_NW BOM_R50_NE BOM_R50_SE BOM_R50_SW BOM_R50_NW BOM_R64_NE BOM_R64_SE BOM_R64_SW BOM_R64_NW BOM_ROCI BOM_POCI BOM_EYE BOM_POS_METHOD BOM_PRES_METHOD NADI_LAT NADI_LON NADI_CAT NADI_WIND NADI_PRES WELLINGTON_LAT WELLINGTON_LON WELLINGTON_WIND WELLINGTON_PRES DS824_LAT DS824_LON DS824_STAGE DS824_WIND DS824_PRES TD9636_LAT TD9636_LON TD9636_STAGE TD9636_WIND TD9636_PRES TD9635_LAT TD9635_LON TD9635_WIND TD9635_PRES TD9635_ROCI NEUMANN_LAT NEUMANN_LON NEUMANN_CLASS NEUMANN_WIND NEUMANN_PRES MLC_LAT MLC_LON MLC_CLASS MLC_WIND MLC_PRES USA_GUST BOM_GUST BOM_GUST_PER REUNION_GUST REUNION_GUST_PER USA_SEAHGT USA_SEARAD_NE USA_SEARAD_SE USA_SEARAD_SW USA_SEARAD_NW STORM_SPEED STORM_DIR
1987287N12089 1987 88 NI BB NOT_NAMED 1987-10-14 00:00:00 NR 12.3000 88.6000 main 732 732 O_________O___ jtwc_io IO041987 12.3000 88.6000 20 -1 12.3000 88.6000 1 20 17 294
1987287N12089 1987 88 NI BB NOT_NAMED 1987-10-14 03:00:00 NR 12.6425 87.8019 main 742 661 P_________P___ IO041987 12.6706 87.7756 22 -1 12.6145 87.8282 1 21 17 293
1987287N12089 1987 88 NI BB NOT_NAMED 1987-10-14 06:00:00 NR 12.9611 87.0371 main 646 582 O_________P___ jtwc_io IO041987 13.0000 87.0000 25 -1 12.9223 87.0742 1 22 16 293
1987287N12089 1987 88 NI BB NOT_NAMED 1987-10-14 09:00:00 NR 13.2418 86.3352 main 574 503 P_________P___ IO041987 13.2648 86.3122 25 -1 13.2188 86.3581 1 23 14 292
1987287N12089 1987 88 NI BB NOT_NAMED 1987-10-14 12:00:00 NR 13.5000 85.7000 main 503 442 O_________O___ jtwc_io IO041987 13.5000 85.7000 25 -1 13.5000 85.7000 1 25 13 294
1987287N12089 1987 88 NI BB NOT_NAMED 1987-10-14 15:00:00 NR 13.7567 85.1172 main 434 381 P_________P___ IO041987 13.7499 85.1199 27 -1 13.7635 85.1145 1 27 12 295
1987287N12089 1987 88 NI BB NOT_NAMED 1987-10-14 18:00:00 NR 14.0070 84.5972 main 381 337 O_________P___ jtwc_io IO041987 14.0000 84.6000 30 -1 14.0140 84.5944 1 30 11 297
1987287N12089 1987 88 NI BB NOT_NAMED 1987-10-14 21:00:00 NR 14.2537 84.1272 main 321 278 P_________P___ IO041987 14.2499 84.1274 32 -1 14.2575 84.1271 1 32 10 300
1987287N12089 1987 88 NI BB NOT_NAMED 1987-10-15 00:00:00 NR 14.5000 83.7000 main 278 238 O_________O___ jtwc_io IO041987 14.5000 83.7000 35 0 14.5000 83.7000 2 35 10 301
1987287N12089 1987 88 NI BB NOT_NAMED 1987-10-15 03:00:00 NR 14.7476 83.2908 main 238 188 P_________P___ IO041987 14.7499 83.2849 37 0 14.7453 83.2966 2 36 9 303
1987287N12089 1987 88 NI BB NOT_NAMED 1987-10-15 06:00:00 NR 14.9958 82.9134 main 188 153 O_________P___ jtwc_io IO041987 15.0000 82.9000 40 0 14.9917 82.9267 2 37 9 305
1987287N12089 1987 88 NI BB NOT_NAMED 1987-10-15 09:00:00 NR 15.2461 82.5554 main 153 104 P_________P___ IO041987 15.2499 82.5424 40 0 15.2422 82.5685 2 38 9 306
1987287N12089 1987 88 NI BB NOT_NAMED 1987-10-15 12:00:00 NR 15.5000 82.2000 main 104 70 O_________O___ jtwc_io IO041987 15.5000 82.2000 40 0 15.5000 82.2000 2 40 9 306
1987287N12089 1987 88 NI BB NOT_NAMED 1987-10-15 15:00:00 NR 15.7529 81.8387 main 56 32 P_________P___ IO041987 15.7423 81.8723 42 0 15.7634 81.8052 2 38 9 306
1987287N12089 1987 88 NI BB NOT_NAMED 1987-10-15 18:00:00 NR 16.0172 81.4471 main 21 0 O_________P___ jtwc_io IO041987 16.0000 81.5000 45 0 16.0345 81.3943 2 37 10 304
1987287N12089 1987 88 NI BB NOT_NAMED 1987-10-15 21:00:00 NR 16.2992 80.9919 main 0 0 P_________P___ IO041987 16.2850 81.0224 40 0 16.3133 80.9613 2 36 11 303
1987287N12089 1987 88 NI BB NOT_NAMED 1987-10-16 00:00:00 NR 16.6000 80.5000 main 0 0 O_________O___ jtwc_io IO041987 16.6000 80.5000 35 0 16.6000 80.5000 2 35 11 304
1987287N12089 1987 88 NI BB NOT_NAMED 1987-10-16 03:00:00 NR 16.9258 80.0070 main 0 0 P_________P___ IO041987 16.9573 80.0075 32 -1 16.8942 80.0066 2 32 12 304
1987287N12089 1987 88 NI BB NOT_NAMED 1987-10-16 06:00:00 NR 17.2469 79.4933 main 0 0 O_________P___ jtwc_io IO041987 17.3000 79.5000 30 -1 17.1939 79.4867 2 30 12 301
1987287N12089 1987 88 NI BB NOT_NAMED 1987-10-16 09:00:00 NR 17.5347 78.9543 main 0 0 P_________P___ IO041987 17.5729 78.9602 27 -1 17.4966 78.9484 2 27 12 298
1987287N12089 1987 88 NI BB NOT_NAMED 1987-10-16 12:00:00 NR 17.8000 78.4000 main 0 O_________O___ jtwc_io IO041987 17.8000 78.4000 25 -1 17.8000 78.4000 1 25 12 297

IBTrACS Databaseについて

本データベースは、米国NOAAが公開する1842年以降の世界の熱帯低気圧のベストトラックデータアーカイブInternational Best Track Archive for Climate Stewardship (IBTrACS)を、ウェブで閲覧しやすい形式に変換したものです。

最終更新日:2021-10-08